Latest Weather Observations for Ulladulla

IDN60901

Issued at 8:41 am EST Saturday 7 May 2016 (issued every 10 minutes, with the page automatically refreshed every 10 minutes)

About weather observations | Map of Canberra area stations | Latest observations for Canberra area | Other Formats
Station Details ID: 069138 Name: ULLADULLA AWS Lat: -35.36 Lon: 150.48 Height: 35.7 m
Data from the previous 72 hours. | See also: Recent months at Ulladulla
Date/Time
EST
Tmp

°C
App
Tmp
°C
Dew
Point
°C
Rel
Hum
%
Delta-T

°C
Wind Press
QNH
hPa
Press
MSL
hPa
Rain
since
9 am
mm
Dir
 
Spd
km/h
Gust
km/h
Spd
kts
Gust
kts
07/08:30am 17.5 18.3 12.6 73 2.7 CALM 0 0 0 0 1020.1 1020.1 0.0
07/08:00am 15.1 15.4 10.9 76 2.2 CALM 0 0 0 0 1020.0 1020.0 0.0
07/07:30am 14.1 13.1 10.3 78 2.0 NNE 6 6 3 3 1019.9 1019.9 0.0
07/07:00am 13.1 12.3 9.5 79 1.8 NNE 4 6 2 3 1019.7 1019.7 0.0
07/06:30am 12.7 12.0 10.2 85 1.3 NNE 4 6 2 3 1019.3 1019.3 0.0
07/06:00am 12.6 11.5 10.0 84 1.3 NNE 6 7 3 4 1019.1 1019.1 0.0
07/05:30am 12.7 12.4 10.2 85 1.3 NNE 2 6 1 3 1019.2 1019.2 0.0
07/05:00am 12.8 13.0 10.5 86 1.2 CALM 0 0 0 0 1019.0 1019.0 0.0
07/04:30am 13.4 13.1 11.5 88 1.0 NNE 4 6 2 3 1018.6 1018.6 0.0
07/04:00am 14.0 14.2 12.0 88 1.1 ENE 2 4 1 2 1018.4 1018.4 0.0
07/03:30am 13.8 14.2 11.1 84 1.4 CALM 0 0 0 0 1018.3 1018.3 0.0
07/03:00am 14.2 14.2 11.2 82 1.6 ENE 2 4 1 2 1018.4 1018.4 0.0
07/02:30am 14.3 13.7 10.3 77 2.1 NE 4 6 2 3 1018.6 1018.6 0.0
07/02:00am 14.1 14.1 9.9 76 2.2 CALM 0 0 0 0 1018.6 1018.6 0.0
07/01:30am 14.1 13.5 9.1 72 2.5 NNW 2 6 1 3 1018.7 1018.7 0.0
07/01:00am 13.6 13.2 8.4 71 2.6 CALM 0 0 0 0 1019.0 1019.0 0.0
07/12:30am 13.6 13.2 8.4 71 2.6 CALM 0 0 0 0 1019.2 1019.2 0.0
07/12:00am 13.7 13.3 8.3 70 2.7 CALM 0 0 0 0 1019.4 1019.4 0.0
 
Date/Time
EST
Tmp

°C
App
Tmp
°C
Dew
Point
°C
Rel
Hum
%
Delta-T

°C
Wind Press
QNH
hPa
Press
MSL
hPa
Rain
since
9 am
mm
Dir
 
Spd
km/h
Gust
km/h
Spd
kts
Gust
kts
06/11:30pm 13.7 13.4 8.5 71 2.6 CALM 0 0 0 0 1019.7 1019.7 0.0
06/11:00pm 13.9 13.5 8.3 69 2.8 CALM 0 0 0 0 1019.7 1019.7 0.0
06/10:30pm 14.4 14.0 8.4 67 3.0 CALM 0 0 0 0 1019.5 1019.5 0.0
06/10:00pm 15.3 14.3 9.0 66 3.2 NNW 4 6 2 3 1019.3 1019.3 0.0
06/09:30pm 15.7 14.6 9.8 68 3.1 N 6 7 3 4 1019.2 1019.2 0.0
06/09:00pm 15.7 14.6 10.0 69 3.0 N 6 7 3 4 1019.3 1019.3 0.0
06/08:30pm 16.4 15.4 10.3 67 3.2 N 6 7 3 4 1019.2 1019.2 0.0
06/08:00pm 16.1 14.9 10.4 69 3.0 N 7 9 4 5 1019.1 1019.1 0.0
06/07:30pm 16.2 15.4 11.2 72 2.7 N 6 7 3 4 1018.8 1018.8 0.0
06/07:00pm 17.0 16.9 12.1 73 2.7 N 4 6 2 3 1018.6 1018.6 0.0
06/06:30pm 17.0 16.6 12.5 75 2.5 N 6 7 3 4 1018.4 1018.4 0.0
06/06:00pm 16.4 15.9 12.2 76 2.3 ENE 6 6 3 3 1018.0 1018.0 0.0
06/05:30pm 17.4 17.8 11.2 67 3.4 CALM 0 0 0 0 1017.8 1017.8 0.0
06/05:00pm 19.1 19.6 11.7 62 4.1 CALM 0 0 0 0 1017.5 1017.5 0.0
06/04:30pm 20.1 20.4 12.1 60 4.5 ENE 2 6 1 3 1017.4 1017.4 0.0
06/04:00pm 21.0 20.8 11.9 56 5.1 E 4 7 2 4 1017.3 1017.3 0.0
06/03:30pm 21.4 20.6 9.6 47 6.3 E 4 7 2 4 1017.1 1017.1 0.0
06/03:00pm 21.9 21.1 9.8 46 6.5 ENE 4 7 2 4 1017.1 1017.1 0.0
06/02:30pm 22.2 21.8 11.0 49 6.2 S 4 11 2 6 1016.9 1016.9 0.0
06/02:00pm 21.7 20.6 10.5 49 6.1 SSE 7 11 4 6 1016.9 1016.9 0.0
06/01:30pm 21.9 20.5 8.8 43 7.0 SE 6 11 3 6 1017.1 1017.1 0.0
06/01:00pm 21.3 19.1 9.2 46 6.4 SSE 11 13 6 7 1017.2 1017.2 0.0
06/12:30pm 21.7 20.1 7.9 41 7.2 S 6 9 3 5 1017.4 1017.4 0.0
06/12:00pm 21.0 19.2 9.6 48 6.1 S 9 11 5 6 1017.9 1017.9 0.0
06/11:30am 20.7 19.6 11.9 57 4.9 S 9 13 5 7 1018.3 1018.3 0.0
06/11:00am 20.8 19.9 11.4 55 5.2 SSW 7 11 4 6 1018.7 1018.7 0.0
06/10:30am 20.6 19.5 10.1 51 5.7 SSW 6 7 3 4 1018.8 1018.8 0.0
06/10:00am 19.8 18.4 10.8 56 4.9 SSW 9 11 5 6 1018.8 1018.8 0.0
06/09:30am 19.3 18.1 9.5 53 5.2 S 6 9 3 5 1018.7 1018.7 0.0
06/09:00am 17.9 16.6 10.0 60 4.2 S 7 11 4 6 1018.7 1018.7 0.0
06/08:30am 18.5 16.7 9.3 55 4.8 SSW 9 13 5 7 1018.5 1018.5 0.0
06/08:00am 17.6 16.2 9.0 57 4.5 SSW 6 11 3 6 1018.2 1018.2 0.0
06/07:30am 17.9 15.5 7.0 49 5.5 WSW 9 17 5 9 1017.7 1017.7 0.0
06/07:00am 17.9 15.0 6.4 47 5.7 W 11 22 6 12 1017.0 1017.0 0.0
06/06:30am 17.9 14.5 6.1 46 5.8 WNW 13 22 7 12 1016.6 1016.6 0.0
06/06:00am 17.9 15.0 6.4 47 5.7 WNW 11 22 6 12 1016.1 1016.1 0.0
06/05:30am 17.7 15.1 6.3 47 5.6 WNW 9 19 5 10 1015.8 1015.8 0.0
06/05:00am 17.7 14.8 6.6 48 5.5 WNW 11 20 6 11 1015.6 1015.6 0.0
06/04:30am 17.3 15.0 7.4 52 5.0 NW 9 24 5 13 1015.4 1015.4 0.0
06/04:00am 15.7 14.4 6.2 53 4.6 NW 2 4 1 2 1015.3 1015.3 0.0
06/03:30am 18.0 15.6 6.8 48 5.6 NW 9 15 5 8 1015.2 1015.2 0.0
06/03:00am 18.4 15.1 6.6 46 5.9 WNW 13 24 7 13 1015.3 1015.3 0.0
06/02:30am 18.7 15.8 6.5 45 6.1 NW 11 24 6 13 1015.2 1015.2 0.0
06/02:00am 16.7 15.6 7.1 53 4.8 NNE 2 6 1 3 1015.3 1015.3 0.0
06/01:30am 16.8 15.1 7.4 54 4.7 N 6 9 3 5 1015.3 1015.3 0.0
06/01:00am 16.0 15.1 7.7 58 4.2 N 2 4 1 2 1015.4 1015.4 0.0
06/12:30am 15.6 14.6 10.2 70 2.8 NNE 6 11 3 6 1015.5 1015.5 0.0
06/12:00am 14.5 13.4 10.7 78 2.0 NNE 7 11 4 6 1015.7 1015.7 0.0
 
Date/Time
EST
Tmp

°C
App
Tmp
°C
Dew
Point
°C
Rel
Hum
%
Delta-T

°C
Wind Press
QNH
hPa
Press
MSL
hPa
Rain
since
9 am
mm
Dir
 
Spd
km/h
Gust
km/h
Spd
kts
Gust
kts
05/11:30pm 14.2 13.2 10.4 78 2.0 NNE 6 7 3 4 1015.9 1015.9 0.0
05/11:00pm 13.5 12.1 8.8 73 2.4 N 6 9 3 5 1016.0 1016.0 0.0
05/10:30pm 13.9 12.7 8.1 68 2.9 N 4 6 2 3 1016.2 1016.2 0.0
05/10:00pm 13.8 12.5 9.3 74 2.3 N 6 9 3 5 1016.6 1016.6 0.0
05/09:30pm 13.4 12.1 9.1 75 2.2 NNW 6 7 3 4 1016.8 1016.8 0.0
05/09:00pm 14.3 13.0 9.3 72 2.6 N 6 7 3 4 1016.9 1016.9 0.0
05/08:30pm 14.6 13.3 9.8 73 2.5 N 7 9 4 5 1016.9 1016.9 0.0
05/08:00pm 14.5 13.3 9.5 72 2.6 NNW 6 9 3 5 1016.8 1016.8 0.0
05/07:30pm 15.3 14.0 9.9 70 2.8 NNW 7 11 4 6 1016.7 1016.7 0.0
05/07:00pm 15.8 14.7 9.9 68 3.1 N 6 9 3 5 1016.6 1016.6 0.0
05/06:30pm 16.9 15.4 10.5 66 3.4 N 9 15 5 8 1016.6 1016.6 0.0
05/06:00pm 17.4 15.2 10.8 65 3.5 N 13 17 7 9 1016.6 1016.6 0.0
05/05:30pm 17.1 16.2 10.7 66 3.4 N 6 13 3 7 1016.3 1016.3 0.0
05/05:00pm 17.3 16.0 10.0 62 3.9 NNE 7 13 4 7 1016.2 1016.2 0.0
05/04:30pm 17.7 16.3 9.6 59 4.3 NNE 7 11 4 6 1016.3 1016.3 0.0
05/04:00pm 18.0 16.6 9.4 57 4.5 NNE 7 9 4 5 1016.3 1016.3 0.0
05/03:30pm 18.3 16.9 8.8 54 4.9 NE 6 7 3 4 1016.3 1016.3 0.0
05/03:00pm 18.5 16.5 7.0 47 5.8 NE 7 9 4 5 1016.3 1016.3 0.0
05/02:30pm 18.8 17.2 7.9 49 5.6 ENE 6 9 3 5 1016.3 1016.3 0.0
05/02:00pm 18.8 17.0 7.9 49 5.6 ENE 7 11 4 6 1016.5 1016.5 0.0
05/01:30pm 18.4 15.9 4.9 41 6.5 SE 7 11 4 6 1016.7 1016.7 0.0
05/01:00pm 18.8 16.8 6.9 46 6.0 SSE 7 11 4 6 1017.0 1017.0 0.0
05/12:30pm 18.4 16.0 7.2 48 5.6 SSE 9 11 5 6 1017.4 1017.4 0.0
05/12:00pm 18.5 16.6 6.7 46 5.9 SSE 6 9 3 5 1018.0 1018.0 0.0
05/11:30am 18.4 16.2 6.3 45 6.0 S 7 11 4 6 1018.6 1018.6 0.0
05/11:00am 18.1 15.9 5.3 43 6.2 S 6 9 3 5 1019.1 1019.1 0.0
05/10:30am 18.6 16.4 5.1 41 6.5 WSW 6 9 3 5 1019.6 1019.6 0.0
05/10:00am 17.7 15.5 6.3 47 5.6 WSW 7 13 4 7 1019.8 1019.8 0.0
05/09:30am 17.4 15.7 7.7 53 4.9 SSW 6 7 3 4 1019.8 1019.8 0.0
05/09:00am 16.9 14.8 5.8 48 5.4 SSW 6 7 3 4 1019.7 1019.7 0.0
05/08:30am 15.9 14.3 6.3 53 4.7 SSW 4 6 2 3 1019.7 1019.7 0.0
05/08:00am 14.5 13.2 6.1 57 4.0 SSW 2 6 1 3 1019.5 1019.5 0.0
05/07:30am 12.9 11.0 5.1 59 3.6 SW 4 7 2 4 1019.2 1019.2 0.0
05/07:00am 12.6 10.1 4.6 58 3.7 W 7 11 4 6 1018.7 1018.7 0.0
05/06:30am 12.4 9.8 4.4 58 3.6 W 7 13 4 7 1018.3 1018.3 0.0
05/06:00am 11.8 9.7 3.8 58 3.6 WNW 4 6 2 3 1018.2 1018.2 0.0
05/05:30am 12.2 10.5 4.2 58 3.6 NW 2 6 1 3 1017.8 1017.8 0.0
05/05:00am 13.6 11.0 4.2 53 4.3 WNW 7 9 4 5 1017.7 1017.7 0.0
05/04:30am 11.9 10.6 6.0 67 2.8 NNW 2 4 1 2 1017.5 1017.5 0.0
05/04:00am 11.7 10.8 6.0 68 2.7 CALM 0 6 0 3 1017.5 1017.5 0.0
05/03:30am 11.3 10.1 6.4 72 2.3 N 2 6 1 3 1017.4 1017.4 0.0
05/03:00am 12.6 11.4 7.9 73 2.3 N 4 4 2 2 1017.5 1017.5 0.0
05/02:30am 11.8 10.8 5.4 65 3.0 CALM 0 0 0 0 1017.5 1017.5 0.0
05/02:00am 12.1 10.7 5.3 63 3.1 NNW 2 4 1 2 1017.8 1017.8 0.0
05/01:30am 12.6 10.5 5.8 63 3.2 N 6 7 3 4 1018.0 1018.0 0.0
05/01:00am 12.7 10.9 5.4 61 3.4 NNW 4 6 2 3 1018.2 1018.2 0.0
05/12:30am 13.4 11.3 5.6 59 3.7 NW 6 7 3 4 1018.3 1018.3 0.0
05/12:00am 13.8 11.5 5.9 59 3.7 NW 7 9 4 5 1018.5 1018.5 0.0
 
Date/Time
EST
Tmp

°C
App
Tmp
°C
Dew
Point
°C
Rel
Hum
%
Delta-T

°C
Wind Press
QNH
hPa
Press
MSL
hPa
Rain
since
9 am
mm
Dir
 
Spd
km/h
Gust
km/h
Spd
kts
Gust
kts
04/11:30pm 13.6 11.5 6.7 63 3.3 NNW 7 11 4 6 1018.7 1018.7 0.0
04/11:00pm 13.6 11.7 6.5 62 3.4 NW 6 9 3 5 1018.8 1018.8 0.0
04/10:30pm 14.1 12.4 8.5 69 2.8 NW 7 9 4 5 1018.9 1018.9 0.0
04/10:00pm 14.7 13.9 11.8 83 1.6 NW 7 13 4 7 1019.0 1019.0 0.0
04/09:30pm 15.6 15.2 12.9 84 1.5 NW 7 11 4 6 1018.9 1018.9 0.0
04/09:00pm 15.6 15.2 12.9 84 1.5 NW 7 9 4 5 1018.9 1018.9 0.0
04/08:30pm 15.8 15.3 12.7 82 1.7 NW 7 9 4 5 1018.7 1018.7 0.0
04/08:00pm 15.5 15.1 12.3 81 1.7 NW 6 7 3 4 1018.4 1018.4 0.0
04/07:30pm 15.7 15.3 12.5 81 1.8 ENE 6 9 3 5 1018.2 1018.2 0.0
04/07:00pm 15.8 15.6 11.8 77 2.2 E 4 6 2 3 1017.8 1017.8 0.0
04/06:30pm 17.5 18.1 13.0 75 2.5 E 2 4 1 2 1017.4 1017.4 0.0
04/06:00pm 18.0 18.3 13.5 75 2.5 E 4 9 2 5 1017.1 1017.1 0.0
04/05:30pm 17.9 18.5 13.0 73 2.8 ESE 2 6 1 3 1016.6 1016.6 0.0
04/05:00pm 18.1 18.7 13.2 73 2.8 SE 2 6 1 3 1016.2 1016.2 0.0
04/04:30pm 17.8 18.3 12.7 72 2.8 SE 2 4 1 2 1016.0 1016.0 0.0
04/04:00pm 18.3 18.0 12.7 70 3.1 SSE 6 11 3 6 1015.8 1015.8 0.0
04/03:30pm 18.5 18.1 12.9 70 3.1 SSE 7 11 4 6 1015.8 1015.8 0.0
04/03:00pm 18.6 18.2 13.0 70 3.2 SSE 7 11 4 6 1015.5 1015.5 0.0
04/02:30pm 18.8 17.7 13.0 69 3.3 S 11 17 6 9 1015.2 1015.2 0.0
04/02:00pm 19.4 18.1 13.8 70 3.2 S 13 19 7 10 1014.9 1014.9 0.0
04/01:30pm 19.2 17.5 13.6 70 3.2 SSE 15 20 8 11 1014.8 1014.8 0.0
04/01:00pm 18.5 15.4 13.4 72 2.9 S 22 28 12 15 1014.7 1014.7 0.0
04/12:30pm 18.6 15.8 13.2 71 3.1 S 20 26 11 14 1014.8 1014.8 0.0
04/12:00pm 18.9 15.8 13.3 70 3.2 S 22 28 12 15 1015.1 1015.1 0.0
04/11:30am 19.1 16.5 13.7 71 3.1 S 20 26 11 14 1015.3 1015.3 0.0
04/11:00am 18.9 16.7 13.3 70 3.2 S 17 24 9 13 1015.3 1015.3 0.0
04/10:30am 17.9 15.2 12.8 72 2.9 SSW 19 26 10 14 1015.3 1015.3 0.0
04/10:00am 18.6 16.0 13.2 71 3.1 SSW 19 28 10 15 1015.0 1015.0 0.0
04/09:30am 18.6 16.0 13.9 74 2.7 SSW 20 30 11 16 1014.5 1014.5 0.0
04/09:00am 18.3 15.9 13.8 75 2.6 SSW 19 28 10 15 1014.3 1014.3 0.0

Latest Capital City Observations: Canberra | Sydney | Melbourne | Brisbane | Adelaide | Perth | Hobart | Darwin

Other Formats:

Comma delimited format used in spreadsheet applications
http://www.bom.gov.au/fwo/IDN60903/IDN60903.94938.axf

JavaScript Object Notation format (JSON) in row-major order
http://www.bom.gov.au/fwo/IDN60903/IDN60903.94938.json